Time;durP1;ratioP1;P1;durP2;ratioP2;P2;SDS_P1;SDS_P2;PMS_P1;PMS_P2;Temp;Humidity;BMP_temperature;BMP_pressure;BME280_temperature;BME280_humidity;BME280_pressure;Samples;Min_cycle;Max_cycle;Signal;HPM_P1;HPM_P2
2022/07/30 00:00:51;;;;;;;1.75;0.52;;;30.00;29.70;;;;;;5046445;28;20128;-53
2022/07/30 00:03:19;;;;;;;1.52;0.20;;;30.00;29.80;;;;;;5046955;28;20047;-56
2022/07/30 00:05:47;;;;;;;3.33;0.22;;;29.90;29.80;;;;;;5046389;28;20395;-51
2022/07/30 00:08:14;;;;;;;4.78;0.20;;;29.90;29.90;;;;;;5046808;28;20045;-58
2022/07/30 00:10:42;;;;;;;2.45;0.20;;;29.90;30.00;;;;;;5050412;28;20045;-51
2022/07/30 00:13:09;;;;;;;0.20;0.20;;;29.90;30.00;;;;;;5050238;28;20064;-52
2022/07/30 00:15:36;;;;;;;1.50;0.13;;;29.90;30.00;;;;;;5050491;28;20045;-53
2022/07/30 00:18:03;;;;;;;2.80;0.10;;;29.80;30.00;;;;;;5050187;28;20055;-52
2022/07/30 00:20:30;;;;;;;0.57;0.25;;;29.80;30.10;;;;;;5050170;28;20045;-53
2022/07/30 00:22:58;;;;;;;1.80;0.10;;;29.80;30.20;;;;;;5050278;28;20037;-53
2022/07/30 00:25:25;;;;;;;0.90;0.10;;;29.80;30.30;;;;;;5049997;28;20450;-54
2022/07/30 00:27:52;;;;;;;1.67;0.10;;;29.80;30.40;;;;;;5042980;28;20037;-51
2022/07/30 00:30:19;;;;;;;1.17;0.10;;;29.70;30.40;;;;;;5049890;28;20128;-50
2022/07/30 00:32:47;;;;;;;1.88;0.10;;;29.70;31.10;;;;;;5050227;28;20044;-48
2022/07/30 00:35:14;;;;;;;0.52;0.10;;;29.70;30.50;;;;;;5048598;28;20049;-51
2022/07/30 00:37:41;;;;;;;0.30;0.20;;;29.60;30.50;;;;;;5049827;28;20045;-48
2022/07/30 00:40:10;;;;;;;0.88;0.30;;;29.60;30.60;;;;;;5050031;28;20126;-52
2022/07/30 00:42:38;;;;;;;0.52;0.20;;;29.60;30.70;;;;;;5049426;28;20067;-53
2022/07/30 00:45:07;;;;;;;3.13;0.22;;;29.60;30.80;;;;;;5049844;28;20079;-50
2022/07/30 00:47:34;;;;;;;1.45;0.35;;;29.50;30.80;;;;;;5049970;28;20570;-50
2022/07/30 00:50:03;;;;;;;0.98;0.20;;;29.50;30.90;;;;;;5041628;28;20041;-53
2022/07/30 00:52:31;;;;;;;1.75;0.20;;;29.50;30.90;;;;;;5049395;28;20045;-54
2022/07/30 00:54:58;;;;;;;1.38;0.10;;;29.50;31.00;;;;;;5048047;28;20044;-51
2022/07/30 00:57:26;;;;;;;1.70;0.20;;;29.50;31.10;;;;;;5047561;28;20428;-52
2022/07/30 00:59:53;;;;;;;2.90;0.35;;;29.40;31.10;;;;;;5048091;28;20907;-51
2022/07/30 01:02:20;;;;;;;0.75;0.10;;;29.40;31.20;;;;;;5047854;28;20041;-55
2022/07/30 01:04:48;;;;;;;2.10;0.10;;;29.40;31.30;;;;;;5047622;28;20132;-50
2022/07/30 01:07:15;;;;;;;1.35;0.20;;;29.40;31.30;;;;;;5049054;28;20426;-51
2022/07/30 01:09:42;;;;;;;1.33;0.22;;;29.40;31.40;;;;;;5048596;28;20509;-51
2022/07/30 01:12:10;;;;;;;1.15;0.20;;;29.40;31.40;;;;;;5049044;28;20045;-52
2022/07/30 01:14:40;;;;;;;6.30;0.75;;;29.30;31.40;;;;;;5048781;28;20064;-47
2022/07/30 01:17:07;;;;;;;2.17;0.35;;;29.30;31.50;;;;;;5049161;28;20041;-55
2022/07/30 01:19:48;;;;;;;1.27;0.57;;;29.30;31.50;;;;;;5048406;28;20580;-52
2022/07/30 01:22:29;;;;;;;0.52;0.10;;;29.30;31.60;;;;;;5048828;28;20529;-50
2022/07/30 01:25:04;;;;;;;3.03;0.22;;;29.20;31.80;;;;;;5048811;28;20507;-49
2022/07/30 01:27:38;;;;;;;0.47;0.15;;;29.20;31.80;;;;;;5041714;28;20044;-49
2022/07/30 01:30:07;;;;;;;0.10;0.10;;;29.20;32.00;;;;;;5047545;28;20045;-51
2022/07/30 01:32:36;;;;;;;3.00;0.10;;;29.10;32.10;;;;;;5047422;28;20045;-46
2022/07/30 01:35:06;;;;;;;4.85;0.47;;;29.10;32.20;;;;;;5047639;28;20108;-48
2022/07/30 01:37:34;;;;;;;2.33;0.10;;;29.10;32.30;;;;;;5030806;28;20049;-51
2022/07/30 01:40:02;;;;;;;2.92;0.30;;;29.10;33.00;;;;;;5033498;28;20183;-48
2022/07/30 01:42:30;;;;;;;2.78;0.20;;;29.10;32.50;;;;;;5046829;28;20148;-50
2022/07/30 01:44:59;;;;;;;6.18;0.20;;;29.10;32.60;;;;;;5046571;28;20091;-50
2022/07/30 01:47:29;;;;;;;1.55;0.25;;;29.10;32.70;;;;;;5047225;28;20041;-51
2022/07/30 01:49:57;;;;;;;2.08;0.25;;;29.00;32.70;;;;;;5047089;28;20459;-51
2022/07/30 01:52:26;;;;;;;1.63;0.45;;;29.10;32.80;;;;;;5047227;28;20061;-51
2022/07/30 01:54:55;;;;;;;6.40;0.10;;;29.00;32.90;;;;;;5046672;28;20107;-50
2022/07/30 01:57:24;;;;;;;6.95;0.50;;;29.00;32.90;;;;;;5046929;28;20052;-49
2022/07/30 01:59:54;;;;;;;1.10;0.20;;;29.00;33.00;;;;;;5046918;28;20048;-49
2022/07/30 02:02:23;;;;;;;0.98;0.30;;;29.00;33.10;;;;;;5046732;28;20048;-49
2022/07/30 02:04:51;;;;;;;3.90;0.17;;;28.90;33.10;;;;;;5048017;28;20056;-47
2022/07/30 02:07:22;;;;;;;1.50;0.10;;;28.90;33.20;;;;;;5046979;28;20055;-48
2022/07/30 02:09:57;;;;;;;1.55;0.30;;;28.90;33.20;;;;;;5047879;28;20091;-51
2022/07/30 02:12:30;;;;;;;6.13;0.10;;;28.90;33.40;;;;;;5030402;28;20485;-65
2022/07/30 02:15:14;;;;;;;6.57;0.20;;;28.80;33.30;;;;;;5046814;28;20033;-60
2022/07/30 02:17:50;;;;;;;0.65;0.10;;;28.80;33.40;;;;;;5042268;28;20531;-53
2022/07/30 02:20:17;;;;;;;0.67;0.10;;;28.80;33.50;;;;;;5046839;28;20419;-64
2022/07/30 02:22:46;;;;;;;3.70;0.20;;;28.80;33.60;;;;;;5046900;28;20299;-64
2022/07/30 02:25:19;;;;;;;1.42;0.30;;;28.70;33.50;;;;;;5047705;28;20049;-60
2022/07/30 02:27:53;;;;;;;1.42;0.10;;;28.70;33.60;;;;;;5042417;28;20147;-59
2022/07/30 02:30:25;;;;;;;4.72;0.20;;;28.70;33.70;;;;;;5046869;28;20132;-60
2022/07/30 02:32:59;;;;;;;0.20;0.20;;;28.70;33.70;;;;;;5043060;28;20043;-59
2022/07/30 02:35:29;;;;;;;0.47;0.10;;;28.70;33.70;;;;;;5041466;28;20139;-59
2022/07/30 02:37:58;;;;;;;0.90;0.17;;;28.60;33.70;;;;;;5045525;28;20045;-59
2022/07/30 02:40:26;;;;;;;5.43;0.20;;;28.60;33.80;;;;;;5044392;28;20081;-61
2022/07/30 02:42:54;;;;;;;2.88;0.10;;;28.60;33.80;;;;;;5045552;28;20128;-62
2022/07/30 02:45:25;;;;;;;2.75;0.10;;;28.60;33.90;;;;;;5043258;28;20040;-62
2022/07/30 02:47:57;;;;;;;0.90;0.30;;;28.60;34.00;;;;;;5044928;28;20040;-62
2022/07/30 02:50:28;;;;;;;2.60;0.30;;;28.50;33.90;;;;;;5042431;28;20032;-61
2022/07/30 02:52:57;;;;;;;4.70;0.20;;;28.50;34.60;;;;;;5044516;28;20064;-60
2022/07/30 02:55:28;;;;;;;2.08;0.17;;;28.50;34.00;;;;;;5044717;28;20041;-60
2022/07/30 02:57:56;;;;;;;1.75;0.38;;;28.50;34.10;;;;;;5040541;28;20766;-60
2022/07/30 03:00:24;;;;;;;2.25;0.20;;;28.40;34.10;;;;;;5046951;28;20483;-60
2022/07/30 03:02:54;;;;;;;0.22;0.22;;;28.40;34.70;;;;;;5045237;28;20048;-60
2022/07/30 03:05:21;;;;;;;0.93;0.10;;;28.40;34.20;;;;;;5047048;28;20140;-60
2022/07/30 03:07:49;;;;;;;4.13;0.90;;;28.40;34.30;;;;;;5046668;28;20114;-61
2022/07/30 03:10:17;;;;;;;2.70;0.10;;;28.30;34.30;;;;;;5045822;28;20045;-59
2022/07/30 03:12:46;;;;;;;0.60;0.20;;;28.40;34.40;;;;;;5045845;28;20128;-59
2022/07/30 03:15:14;;;;;;;1.20;0.30;;;28.30;34.40;;;;;;5047068;28;20419;-60
2022/07/30 03:17:45;;;;;;;0.90;0.20;;;28.30;34.40;;;;;;5047186;28;20049;-59
2022/07/30 03:20:17;;;;;;;0.82;0.10;;;28.30;34.50;;;;;;5047143;28;20150;-60
2022/07/30 03:22:47;;;;;;;1.55;0.17;;;28.30;34.60;;;;;;5046683;28;20467;-59
2022/07/30 03:25:18;;;;;;;2.20;0.40;;;28.30;34.70;;;;;;5045333;28;20556;-60
2022/07/30 03:27:46;;;;;;;0.32;0.13;;;28.20;34.70;;;;;;5045813;28;20094;-61
2022/07/30 03:30:14;;;;;;;0.93;0.10;;;28.20;34.70;;;;;;5047071;28;20115;-60
2022/07/30 03:32:43;;;;;;;5.65;0.43;;;28.20;34.70;;;;;;5045818;28;20033;-60
2022/07/30 03:35:11;;;;;;;1.95;0.10;;;28.20;34.80;;;;;;5046364;28;20056;-60
2022/07/30 03:37:40;;;;;;;0.90;0.20;;;28.10;34.80;;;;;;5044677;28;20582;-60
2022/07/30 03:40:09;;;;;;;0.20;0.20;;;28.10;34.80;;;;;;5045870;28;20037;-58
2022/07/30 03:42:36;;;;;;;2.38;0.10;;;28.10;34.90;;;;;;5050706;28;20041;-62
2022/07/30 03:45:07;;;;;;;0.20;0.15;;;28.10;34.90;;;;;;5060078;28;20044;-59
2022/07/30 03:47:38;;;;;;;3.47;0.28;;;28.10;35.10;;;;;;5061355;28;20502;-59
2022/07/30 03:50:06;;;;;;;0.38;0.35;;;28.10;35.20;;;;;;5089611;28;20071;-59
2022/07/30 03:52:37;;;;;;;1.15;0.10;;;28.00;35.10;;;;;;5057778;28;20036;-60
2022/07/30 03:55:09;;;;;;;3.35;0.40;;;28.00;35.10;;;;;;5055806;28;20044;-59
2022/07/30 03:57:56;;;;;;;2.50;0.25;;;28.00;35.10;;;;;;5012858;28;20522;-59
2022/07/30 04:00:27;;;;;;;1.60;0.13;;;28.00;35.20;;;;;;4999530;28;20413;-59
2022/07/30 04:02:54;;;;;;;1.75;0.13;;;27.90;35.10;;;;;;4997974;28;20115;-59
2022/07/30 04:05:47;;;;;;;0.57;0.20;;;27.90;35.20;;;;;;4999064;28;20042;-59
2022/07/30 04:08:14;;;;;;;1.13;0.13;;;27.90;35.20;;;;;;5016345;28;20108;-61
2022/07/30 04:10:43;;;;;;;1.40;0.20;;;27.90;35.20;;;;;;4999913;28;20056;-60
2022/07/30 04:13:33;;;;;;;1.23;0.17;;;27.90;35.30;;;;;;5012755;28;20144;-59
2022/07/30 04:16:05;;;;;;;1.55;0.13;;;27.90;35.30;;;;;;5010114;28;20204;-60
2022/07/30 04:18:38;;;;;;;1.65;0.20;;;27.80;35.30;;;;;;5088545;22;20023;-71
2022/07/30 04:21:08;;;;;;;1.23;0.38;;;27.80;35.40;;;;;;5075382;23;20053;-60
2022/07/30 04:23:37;;;;;;;2.92;0.30;;;27.80;35.40;;;;;;5026827;28;20137;-68
2022/07/30 04:26:06;;;;;;;1.27;0.43;;;27.80;35.50;;;;;;5028287;28;20041;-65
2022/07/30 04:28:35;;;;;;;0.68;0.50;;;27.80;35.50;;;;;;5027400;28;20147;-68
2022/07/30 04:31:03;;;;;;;3.05;0.70;;;27.80;35.50;;;;;;5028228;28;20037;-68
2022/07/30 04:33:30;;;;;;;2.20;0.77;;;27.70;35.50;;;;;;5025584;28;20518;-67
2022/07/30 04:36:11;;;;;;;3.75;0.82;;;27.70;35.60;;;;;;5027136;28;20050;-67
2022/07/30 04:38:38;;;;;;;5.72;1.10;;;27.70;35.60;;;;;;5028239;28;20587;-66
2022/07/30 04:41:07;;;;;;;6.00;0.75;;;27.70;35.60;;;;;;5025450;28;20406;-66
2022/07/30 04:43:56;;;;;;;4.60;1.20;;;27.70;35.70;;;;;;5029914;28;20057;-66
2022/07/30 04:46:23;;;;;;;8.27;0.70;;;27.60;35.70;;;;;;5028342;28;20041;-61
2022/07/30 04:48:51;;;;;;;2.17;0.77;;;27.60;35.70;;;;;;5011254;28;20041;-63
2022/07/30 04:51:23;;;;;;;2.40;0.80;;;27.60;35.90;;;;;;5027477;28;20045;-61
2022/07/30 04:53:52;;;;;;;0.82;0.60;;;27.60;36.00;;;;;;5027731;28;20037;-61
2022/07/30 04:56:23;;;;;;;3.13;0.63;;;27.60;36.10;;;;;;5014401;28;20483;-60
2022/07/30 04:58:51;;;;;;;5.13;0.55;;;27.60;36.10;;;;;;5027548;28;20090;-61
2022/07/30 05:01:24;;;;;;;0.93;0.22;;;27.70;36.20;;;;;;5015003;28;20051;-62
2022/07/30 05:03:52;;;;;;;2.38;0.65;;;27.70;36.20;;;;;;5027820;28;20112;-63
2022/07/30 05:06:21;;;;;;;1.38;0.55;;;27.70;36.20;;;;;;5027897;28;20037;-63
2022/07/30 05:08:48;;;;;;;4.15;0.82;;;27.80;36.20;;;;;;5011593;28;20515;-63
2022/07/30 05:11:16;;;;;;;3.40;0.90;;;27.80;36.20;;;;;;5015472;28;20073;-62
2022/07/30 05:13:47;;;;;;;3.70;0.40;;;27.80;36.20;;;;;;5017746;28;20072;-62
2022/07/30 05:16:17;;;;;;;0.38;0.20;;;27.90;36.30;;;;;;5008425;28;20046;-61
2022/07/30 05:18:45;;;;;;;0.52;0.35;;;27.90;36.20;;;;;;5008476;28;20710;-63
2022/07/30 05:21:12;;;;;;;2.35;0.20;;;27.90;36.20;;;;;;5024052;28;20061;-62
2022/07/30 05:23:45;;;;;;;0.65;0.22;;;27.90;36.10;;;;;;5027689;28;20041;-63
2022/07/30 05:26:35;;;;;;;0.55;0.38;;;28.00;36.20;;;;;;5026767;28;20053;-63
2022/07/30 05:29:04;;;;;;;0.60;0.30;;;28.00;36.10;;;;;;5022467;28;20050;-64
2022/07/30 05:31:53;;;;;;;0.17;0.17;;;28.10;36.20;;;;;;5027106;28;20037;-61
2022/07/30 05:34:21;;;;;;;0.38;0.28;;;28.10;36.10;;;;;;5026569;28;20491;-62
2022/07/30 05:36:49;;;;;;;0.43;0.30;;;28.10;36.10;;;;;;5025551;28;20112;-62
2022/07/30 05:39:18;;;;;;;2.95;0.20;;;28.10;36.10;;;;;;5027174;28;20049;-61
2022/07/30 05:41:57;;;;;;;0.47;0.20;;;28.10;36.10;;;;;;5028869;28;20045;-62
2022/07/30 05:44:34;;;;;;;1.23;0.20;;;28.20;36.20;;;;;;5029605;28;20049;-63
2022/07/30 05:47:01;;;;;;;0.30;0.10;;;28.20;36.10;;;;;;5024350;28;20124;-62
2022/07/30 05:49:29;;;;;;;0.22;0.10;;;28.20;36.10;;;;;;5026836;28;20426;-63
2022/07/30 05:52:05;;;;;;;0.20;0.20;;;28.20;36.20;;;;;;5014345;28;20041;-63
2022/07/30 05:54:32;;;;;;;0.70;0.28;;;28.30;36.20;;;;;;5027065;28;20041;-63
2022/07/30 05:57:20;;;;;;;1.17;0.20;;;28.30;36.20;;;;;;5027037;28;20050;-62
2022/07/30 05:59:49;;;;;;;0.20;0.20;;;28.30;36.20;;;;;;5026599;28;20045;-63
2022/07/30 06:02:23;;;;;;;0.95;0.55;;;28.30;36.20;;;;;;5026857;28;20159;-62
2022/07/30 06:05:08;;;;;;;0.15;0.10;;;28.30;36.10;;;;;;5020934;28;20556;-62
2022/07/30 06:07:36;;;;;;;0.75;0.13;;;28.30;36.20;;;;;;5025888;28;20115;-64
2022/07/30 06:10:05;;;;;;;0.20;0.10;;;28.40;36.30;;;;;;5026598;28;20052;-64
2022/07/30 06:12:32;;;;;;;1.55;0.10;;;28.40;36.20;;;;;;5028431;28;20111;-64
2022/07/30 06:15:01;;;;;;;1.05;0.20;;;28.40;36.20;;;;;;5027962;28;20121;-64
2022/07/30 06:17:42;;;;;;;0.68;0.43;;;28.40;36.20;;;;;;5026102;28;20139;-61
2022/07/30 06:20:29;;;;;;;3.50;0.20;;;28.40;36.80;;;;;;5019120;28;20064;-61
2022/07/30 06:23:22;;;;;;;1.33;0.20;;;28.40;36.20;;;;;;5003621;28;20075;-63
2022/07/30 06:26:09;;;;;;;0.68;0.38;;;28.40;36.10;;;;;;5026248;28;20236;-62
2022/07/30 06:28:36;;;;;;;0.30;0.10;;;28.50;36.20;;;;;;5026371;28;20048;-61
2022/07/30 06:31:05;;;;;;;0.40;0.10;;;28.50;36.20;;;;;;5025646;28;20049;-61
2022/07/30 06:33:32;;;;;;;0.40;0.10;;;28.50;36.20;;;;;;5026315;28;20049;-61
2022/07/30 06:35:59;;;;;;;1.42;0.10;;;28.50;36.10;;;;;;5019442;28;20041;-61
2022/07/30 06:38:31;;;;;;;0.98;0.32;;;28.60;36.20;;;;;;5007777;28;20454;-62
2022/07/30 06:41:04;;;;;;;2.65;0.35;;;28.60;36.20;;;;;;5006623;28;20073;-62
2022/07/30 06:43:51;;;;;;;1.10;0.10;;;28.60;36.10;;;;;;5021687;28;20052;-63
2022/07/30 06:46:49;;;;;;;1.48;0.70;;;28.60;36.10;;;;;;5022066;28;20064;-62
2022/07/30 06:49:20;;;;;;;0.45;0.10;;;28.60;36.10;;;;;;5016981;28;20048;-62
2022/07/30 06:51:47;;;;;;;0.15;0.15;;;28.60;36.10;;;;;;5027272;28;20110;-62
2022/07/30 06:54:14;;;;;;;0.10;0.10;;;28.60;36.10;;;;;;5013405;28;20042;-63
2022/07/30 06:57:01;;;;;;;0.80;0.40;;;28.60;36.10;;;;;;5022826;28;20054;-61
2022/07/30 06:59:29;;;;;;;0.20;0.10;;;28.70;36.20;;;;;;5018858;28;20057;-62
2022/07/30 07:01:57;;;;;;;0.40;0.10;;;28.70;36.20;;;;;;5027533;28;20056;-62
2022/07/30 07:04:24;;;;;;;0.35;0.10;;;28.70;36.80;;;;;;5012968;28;20049;-62
2022/07/30 07:06:52;;;;;;;0.90;0.25;;;28.70;36.10;;;;;;5012807;28;20574;-63
2022/07/30 07:09:28;;;;;;;4.63;0.52;;;28.70;36.10;;;;;;5012754;28;20041;-63
2022/07/30 07:12:30;;;;;;;0.85;0.38;;;28.70;36.10;;;;;;5026853;28;20495;-63
2022/07/30 07:14:57;;;;;;;0.25;0.25;;;28.80;36.10;;;;;;5012422;28;20046;-62
2022/07/30 07:17:25;;;;;;;0.82;0.20;;;28.80;36.70;;;;;;5012540;28;20048;-63
2022/07/30 07:20:12;;;;;;;1.98;0.80;;;28.80;36.10;;;;;;5026191;28;20060;-63
2022/07/30 07:22:47;;;;;;;0.15;0.15;;;28.80;36.10;;;;;;5014518;28;20046;-62
2022/07/30 07:25:15;;;;;;;0.15;0.10;;;28.80;36.00;;;;;;5012545;28;20057;-63
2022/07/30 07:27:42;;;;;;;2.08;0.10;;;28.80;36.10;;;;;;5025236;28;20065;-64
2022/07/30 07:30:10;;;;;;;4.70;0.22;;;28.80;36.00;;;;;;5007762;28;20435;-64
2022/07/30 07:32:39;;;;;;;1.27;0.40;;;28.90;36.10;;;;;;5006779;28;20113;-63
2022/07/30 07:35:07;;;;;;;0.40;0.10;;;28.90;36.00;;;;;;5025196;28;20071;-62
2022/07/30 07:37:38;;;;;;;0.17;0.10;;;28.90;36.00;;;;;;5019993;28;20050;-62
2022/07/30 07:40:07;;;;;;;1.50;0.30;;;28.90;36.00;;;;;;5024844;28;20589;-62
2022/07/30 07:42:38;;;;;;;0.55;0.20;;;28.90;36.00;;;;;;5026852;28;20053;-62
2022/07/30 07:45:08;;;;;;;1.02;0.43;;;28.90;36.60;;;;;;5017694;28;20052;-62
2022/07/30 07:47:45;;;;;;;0.80;0.13;;;28.90;36.00;;;;;;5025477;28;20530;-62
2022/07/30 07:50:20;;;;;;;1.02;0.10;;;28.90;36.00;;;;;;5021034;28;20393;-63
2022/07/30 07:52:47;;;;;;;0.65;0.30;;;29.00;36.10;;;;;;5023667;28;20045;-61
2022/07/30 07:55:14;;;;;;;1.45;0.10;;;29.00;36.00;;;;;;5025006;28;20044;-61
2022/07/30 07:57:42;;;;;;;0.95;0.10;;;29.00;36.00;;;;;;5026169;28;20057;-61
2022/07/30 08:00:13;;;;;;;0.15;0.10;;;29.00;36.00;;;;;;5018548;28;20060;-61
2022/07/30 08:02:48;;;;;;;1.10;0.30;;;29.00;36.00;;;;;;5026771;28;20387;-62
2022/07/30 08:05:17;;;;;;;0.30;0.30;;;29.00;36.00;;;;;;5024831;28;20099;-61
2022/07/30 08:07:51;;;;;;;;;;;29.00;36.00;;;;;;5025418;28;20485;-61
2022/07/30 08:10:21;;;;;;;1.00;0.20;;;29.00;35.90;;;;;;5026268;28;19975;-63
2022/07/30 08:13:06;;;;;;;0.32;0.32;;;29.00;36.10;;;;;;5026091;28;20041;-62
2022/07/30 08:16:13;;;;;;;1.95;0.25;;;29.00;36.10;;;;;;5002846;28;20046;-63
2022/07/30 08:19:14;;;;;;;1.08;0.20;;;29.00;36.10;;;;;;4964678;28;20137;-62
2022/07/30 08:21:45;;;;;;;1.40;0.20;;;29.00;36.10;;;;;;4948398;28;20074;-62
2022/07/30 08:24:17;;;;;;;0.98;0.43;;;29.00;36.10;;;;;;4971670;28;20226;-63
2022/07/30 08:26:44;;;;;;;0.70;0.30;;;29.10;36.10;;;;;;4953581;28;20050;-62
2022/07/30 08:29:11;;;;;;;0.63;0.50;;;29.10;36.10;;;;;;4963118;28;20109;-62
2022/07/30 08:31:38;;;;;;;1.23;0.30;;;29.10;36.10;;;;;;4968407;28;20115;-62
2022/07/30 08:34:05;;;;;;;1.10;0.45;;;29.10;36.00;;;;;;4967995;28;20050;-62
2022/07/30 08:36:34;;;;;;;1.48;0.35;;;29.10;36.00;;;;;;4968475;28;20051;-63
2022/07/30 08:39:01;;;;;;;1.05;0.50;;;29.20;36.10;;;;;;4968218;28;20050;-61
2022/07/30 08:41:30;;;;;;;3.08;0.38;;;29.20;36.00;;;;;;4952497;28;20528;-62
2022/07/30 08:44:00;;;;;;;1.40;0.43;;;29.20;36.00;;;;;;4965624;28;20055;-62
2022/07/30 08:46:31;;;;;;;0.93;0.40;;;29.20;36.00;;;;;;4977941;28;20056;-62
2022/07/30 08:49:06;;;;;;;1.27;0.75;;;29.20;36.00;;;;;;4990769;28;20054;-61
2022/07/30 08:51:35;;;;;;;0.88;0.28;;;29.20;36.00;;;;;;4991065;28;20042;-62
2022/07/30 08:54:23;;;;;;;2.05;0.30;;;29.30;36.00;;;;;;5009083;28;20046;-61
2022/07/30 08:56:50;;;;;;;0.95;0.30;;;29.20;35.90;;;;;;5029553;28;20065;-63
2022/07/30 08:59:18;;;;;;;1.67;0.40;;;29.30;35.90;;;;;;4999007;28;20049;-62
2022/07/30 09:01:45;;;;;;;2.33;0.40;;;29.30;35.90;;;;;;5029510;28;20145;-62
2022/07/30 09:04:13;;;;;;;4.15;0.40;;;29.30;35.80;;;;;;5030019;28;20128;-62
2022/07/30 09:06:42;;;;;;;0.70;0.40;;;29.30;35.80;;;;;;5027876;28;20060;-62
2022/07/30 09:09:09;;;;;;;1.98;0.63;;;29.30;35.70;;;;;;5028144;28;20128;-60
2022/07/30 09:11:36;;;;;;;2.03;0.47;;;29.30;35.70;;;;;;5028046;28;20123;-60
2022/07/30 09:14:11;;;;;;;2.05;0.40;;;29.40;35.70;;;;;;5021657;28;20038;-61
2022/07/30 09:16:39;;;;;;;0.77;0.25;;;29.30;35.50;;;;;;5029210;28;20049;-61
2022/07/30 09:19:14;;;;;;;0.65;0.57;;;29.30;35.50;;;;;;5021527;28;20757;-62
2022/07/30 09:21:43;;;;;;;;;;;29.40;35.60;;;;;;5025168;28;20508;-61
2022/07/30 09:24:42;;;;;;;0.40;0.20;;;29.30;35.40;;;;;;5019927;28;19925;-61
2022/07/30 09:27:44;;;;;;;0.22;0.22;;;29.30;35.50;;;;;;5004177;28;20133;-62
2022/07/30 09:30:47;;;;;;;1.50;0.20;;;29.40;35.50;;;;;;5001439;28;20060;-61
2022/07/30 09:33:34;;;;;;;0.75;0.10;;;29.40;35.40;;;;;;5006282;28;20054;-61
2022/07/30 09:36:20;;;;;;;3.03;0.20;;;29.40;35.30;;;;;;5006015;28;20139;-62
2022/07/30 09:39:08;;;;;;;0.45;0.20;;;29.40;35.40;;;;;;5006380;28;20062;-62
2022/07/30 09:42:16;;;;;;;0.70;0.20;;;29.40;35.30;;;;;;5001622;28;20038;-62
2022/07/30 09:44:43;;;;;;;0.30;0.20;;;29.40;35.20;;;;;;5014677;28;20424;-62
2022/07/30 09:47:30;;;;;;;1.05;0.13;;;29.40;35.80;;;;;;4978629;28;20727;-63
2022/07/30 09:50:03;;;;;;;3.20;0.52;;;29.50;35.10;;;;;;5006008;28;20054;-62
2022/07/30 09:52:31;;;;;;;1.10;0.20;;;29.50;35.20;;;;;;4977023;28;20149;-62
2022/07/30 09:54:59;;;;;;;1.88;0.10;;;29.50;35.10;;;;;;4991325;28;20096;-61
2022/07/30 09:57:29;;;;;;;0.47;0.15;;;29.50;35.00;;;;;;4999269;28;20077;-62
2022/07/30 10:00:18;;;;;;;0.55;0.10;;;29.50;35.00;;;;;;5006396;28;20057;-62
2022/07/30 10:02:50;;;;;;;0.20;0.10;;;29.60;34.90;;;;;;4981663;28;20058;-62
2022/07/30 10:05:50;;;;;;;1.30;0.30;;;29.50;34.80;;;;;;5019167;28;20045;-62
2022/07/30 10:08:17;;;;;;;2.13;0.10;;;29.50;34.80;;;;;;5013903;28;20400;-61
2022/07/30 10:10:48;;;;;;;1.02;0.10;;;29.60;35.00;;;;;;5027029;28;20046;-61
2022/07/30 10:13:17;;;;;;;0.20;0.20;;;29.60;34.90;;;;;;5020346;28;20045;-61
2022/07/30 10:15:45;;;;;;;1.00;0.38;;;29.50;34.90;;;;;;5028333;28;20083;-62
2022/07/30 10:18:14;;;;;;;0.55;0.22;;;29.60;34.90;;;;;;5026890;28;20132;-63
2022/07/30 10:21:08;;;;;;;0.40;0.20;;;29.60;34.90;;;;;;5005326;28;20062;-62
2022/07/30 10:23:55;;;;;;;1.95;0.10;;;29.60;34.90;;;;;;5005582;28;20057;-60
2022/07/30 10:26:58;;;;;;;0.20;0.10;;;29.60;34.90;;;;;;5005883;28;20495;-60
2022/07/30 10:29:43;;;;;;;0.63;0.20;;;29.60;34.90;;;;;;5001883;28;20882;-61
2022/07/30 10:32:11;;;;;;;0.20;0.10;;;29.70;34.90;;;;;;5005766;28;20053;-60
2022/07/30 10:34:39;;;;;;;0.60;0.10;;;29.60;34.80;;;;;;5005474;28;20056;-60
2022/07/30 10:37:07;;;;;;;0.77;0.10;;;29.70;34.90;;;;;;5004868;28;20077;-62
2022/07/30 10:39:39;;;;;;;4.88;0.30;;;29.70;34.80;;;;;;5005098;28;20136;-61
2022/07/30 10:42:22;;;;;;;0.88;0.10;;;29.70;34.80;;;;;;5005101;28;20161;-61
2022/07/30 10:45:07;;;;;;;1.00;0.10;;;29.70;34.80;;;;;;5005437;28;20045;-61
2022/07/30 10:47:35;;;;;;;0.38;0.10;;;29.70;34.80;;;;;;4999744;28;20168;-61
2022/07/30 10:50:07;;;;;;;0.40;0.15;;;29.70;34.80;;;;;;5004836;28;20155;-60
2022/07/30 10:52:45;;;;;;;0.30;0.10;;;29.70;34.80;;;;;;5004139;28;20077;-60
2022/07/30 10:55:15;;;;;;;0.10;0.10;;;29.80;34.90;;;;;;5005075;28;20057;-62
2022/07/30 10:58:01;;;;;;;0.10;0.10;;;29.80;34.80;;;;;;5008311;28;20539;-61
2022/07/30 11:00:31;;;;;;;1.38;0.13;;;29.90;34.90;;;;;;5025670;28;20152;-62
2022/07/30 11:03:18;;;;;;;1.27;0.10;;;29.80;34.90;;;;;;5027299;28;20046;-63
2022/07/30 11:05:48;;;;;;;0.20;0.20;;;29.90;34.90;;;;;;5026937;28;20094;-62
2022/07/30 11:08:36;;;;;;;0.90;0.10;;;29.80;35.00;;;;;;5027626;28;20122;-62
2022/07/30 11:11:05;;;;;;;0.70;0.15;;;29.90;35.00;;;;;;5025976;28;20122;-62
2022/07/30 11:13:53;;;;;;;1.23;0.10;;;29.90;35.00;;;;;;5026045;28;20136;-63
2022/07/30 11:16:22;;;;;;;0.30;0.10;;;29.90;34.90;;;;;;5027156;28;20061;-63
2022/07/30 11:19:06;;;;;;;1.30;0.20;;;29.90;35.10;;;;;;5027386;28;20446;-63
2022/07/30 11:21:34;;;;;;;0.20;0.10;;;30.00;35.10;;;;;;5020034;28;20053;-63
2022/07/30 11:24:02;;;;;;;0.65;0.10;;;30.00;35.00;;;;;;5027521;28;20095;-63
2022/07/30 11:26:50;;;;;;;0.30;0.10;;;30.00;35.00;;;;;;5027286;28;20044;-62
2022/07/30 11:29:35;;;;;;;0.45;0.10;;;30.00;35.00;;;;;;5026895;28;20172;-62
2022/07/30 11:32:25;;;;;;;0.30;0.10;;;30.00;35.00;;;;;;5016967;28;20044;-63
2022/07/30 11:34:52;;;;;;;1.80;0.13;;;30.00;34.90;;;;;;5021142;28;20143;-62
2022/07/30 11:37:19;;;;;;;0.47;0.10;;;30.00;35.00;;;;;;5027258;28;20117;-62
2022/07/30 11:40:12;;;;;;;0.20;0.08;;;30.10;35.00;;;;;;5026875;28;20128;-62
2022/07/30 11:42:41;;;;;;;0.30;0.10;;;30.10;34.90;;;;;;5026440;28;20049;-62
2022/07/30 11:45:31;;;;;;;0.20;0.10;;;30.10;34.90;;;;;;5026848;28;20044;-62
2022/07/30 11:48:02;;;;;;;1.88;0.20;;;30.10;34.90;;;;;;5027100;28;20113;-62
2022/07/30 11:50:31;;;;;;;0.93;0.10;;;30.20;35.00;;;;;;5026529;28;20088;-63
2022/07/30 11:53:00;;;;;;;0.10;0.00;;;30.20;34.90;;;;;;5026964;28;20045;-62
2022/07/30 11:55:31;;;;;;;0.10;0.10;;;30.20;34.90;;;;;;5026818;28;20041;-62
2022/07/30 11:58:00;;;;;;;1.55;0.47;;;30.20;34.90;;;;;;5026924;28;20483;-62
2022/07/30 12:00:36;;;;;;;0.68;0.10;;;30.20;34.90;;;;;;5027025;28;20060;-62
2022/07/30 12:03:14;;;;;;;0.60;0.17;;;30.30;35.00;;;;;;5020688;28;20069;-62
2022/07/30 12:05:42;;;;;;;0.10;0.10;;;30.30;34.90;;;;;;5029194;28;20089;-62
2022/07/30 12:08:10;;;;;;;0.10;0.10;;;30.30;34.90;;;;;;5030835;28;20033;-61
2022/07/30 12:10:38;;;;;;;0.08;0.08;;;30.30;34.90;;;;;;5030656;28;20064;-62
2022/07/30 12:13:10;;;;;;;0.85;0.10;;;30.40;34.90;;;;;;5030702;28;20120;-62
2022/07/30 12:15:40;;;;;;;0.17;0.10;;;30.40;34.90;;;;;;5015804;28;20526;-62
2022/07/30 12:18:10;;;;;;;0.10;0.10;;;30.40;34.90;;;;;;5030439;28;20056;-62
2022/07/30 12:20:37;;;;;;;0.52;0.10;;;30.40;34.80;;;;;;5029167;28;20061;-62
2022/07/30 12:23:10;;;;;;;0.10;0.10;;;30.40;34.80;;;;;;5012987;28;20449;-61
2022/07/30 12:25:38;;;;;;;0.38;0.10;;;30.50;34.80;;;;;;5028721;28;20103;-61
2022/07/30 12:28:06;;;;;;;0.10;0.10;;;30.40;34.70;;;;;;5030501;28;20038;-62
2022/07/30 12:30:33;;;;;;;0.10;0.10;;;30.50;34.70;;;;;;5030146;28;20081;-62
2022/07/30 12:33:01;;;;;;;0.35;0.15;;;30.50;34.60;;;;;;5027136;28;20570;-64
2022/07/30 12:35:42;;;;;;;0.10;0.10;;;30.50;34.60;;;;;;5027692;28;20610;-62
2022/07/30 12:38:09;;;;;;;5.30;0.10;;;30.60;34.60;;;;;;5030440;28;20097;-62
2022/07/30 12:40:55;;;;;;;0.13;0.08;;;30.50;34.50;;;;;;5023704;28;20064;-61
2022/07/30 12:43:45;;;;;;;0.40;0.40;;;30.60;34.50;;;;;;5025555;28;20072;-61
2022/07/30 12:46:14;;;;;;;0.35;0.35;;;30.60;34.50;;;;;;5029391;28;20323;-61
2022/07/30 12:48:51;;;;;;;5.35;0.10;;;30.60;34.50;;;;;;5030364;28;20033;-61
2022/07/30 12:51:18;;;;;;;0.28;0.10;;;30.60;34.50;;;;;;5030253;28;20132;-61
2022/07/30 12:53:46;;;;;;;0.17;0.10;;;30.60;34.50;;;;;;5029179;28;20041;-61
2022/07/30 12:56:14;;;;;;;0.45;0.10;;;30.70;34.60;;;;;;5030140;28;20502;-61
2022/07/30 12:58:41;;;;;;;0.57;0.10;;;30.70;35.20;;;;;;5030086;28;20501;-61
2022/07/30 13:01:09;;;;;;;1.65;0.20;;;30.70;34.50;;;;;;5029939;28;20038;-62
2022/07/30 13:03:40;;;;;;;0.10;0.10;;;30.70;34.50;;;;;;5029745;28;20125;-62
2022/07/30 13:06:19;;;;;;;2.10;0.10;;;30.80;34.50;;;;;;5030169;28;20069;-62
2022/07/30 13:08:52;;;;;;;0.10;0.10;;;30.80;34.50;;;;;;5024263;28;20060;-62
2022/07/30 13:11:21;;;;;;;0.30;0.30;;;30.80;34.50;;;;;;5030117;28;20525;-62
2022/07/30 13:13:49;;;;;;;0.10;0.10;;;30.80;34.40;;;;;;5030082;28;20683;-62
2022/07/30 13:16:18;;;;;;;1.75;0.32;;;30.80;34.40;;;;;;5029661;28;20104;-61